sensor_id;sensor_type;location;lat;lon;timestamp;temperature;humidity
23827;DHT22;12094;50.822;4.376;2024-01-15T00:00:17;2.20;99.90
23827;DHT22;12094;50.822;4.376;2024-01-15T00:02:47;2.20;99.90
23827;DHT22;12094;50.822;4.376;2024-01-15T00:05:14;2.30;99.90
23827;DHT22;12094;50.822;4.376;2024-01-15T00:07:41;2.30;99.90
23827;DHT22;12094;50.822;4.376;2024-01-15T00:10:08;2.30;99.90
23827;DHT22;12094;50.822;4.376;2024-01-15T00:12:35;2.20;99.90
23827;DHT22;12094;50.822;4.376;2024-01-15T00:15:03;2.30;99.90
23827;DHT22;12094;50.822;4.376;2024-01-15T00:17:31;2.40;99.90
23827;DHT22;12094;50.822;4.376;2024-01-15T00:19:58;2.40;99.90
23827;DHT22;12094;50.822;4.376;2024-01-15T00:22:27;2.30;99.90
23827;DHT22;12094;50.822;4.376;2024-01-15T00:24:55;2.30;99.90
23827;DHT22;12094;50.822;4.376;2024-01-15T00:27:23;2.40;99.90
23827;DHT22;12094;50.822;4.376;2024-01-15T00:29:52;2.50;99.90
23827;DHT22;12094;50.822;4.376;2024-01-15T00:32:20;2.40;99.90
23827;DHT22;12094;50.822;4.376;2024-01-15T00:34:48;2.30;99.90
23827;DHT22;12094;50.822;4.376;2024-01-15T00:37:15;2.20;99.90
23827;DHT22;12094;50.822;4.376;2024-01-15T00:39:42;2.30;99.90
23827;DHT22;12094;50.822;4.376;2024-01-15T00:42:10;2.40;99.90
23827;DHT22;12094;50.822;4.376;2024-01-15T00:44:38;2.30;99.90
23827;DHT22;12094;50.822;4.376;2024-01-15T00:47:06;2.30;99.90
23827;DHT22;12094;50.822;4.376;2024-01-15T00:49:34;2.30;99.90
23827;DHT22;12094;50.822;4.376;2024-01-15T00:54:57;2.50;99.90
23827;DHT22;12094;50.822;4.376;2024-01-15T00:57:24;2.50;99.90
23827;DHT22;12094;50.822;4.376;2024-01-15T01:03:53;2.90;99.90
23827;DHT22;12094;50.822;4.376;2024-01-15T01:06:21;3.00;99.90
23827;DHT22;12094;50.822;4.376;2024-01-15T01:08:48;2.90;99.90
23827;DHT22;12094;50.822;4.376;2024-01-15T01:11:15;3.00;99.90
23827;DHT22;12094;50.822;4.376;2024-01-15T01:13:44;3.00;99.90
23827;DHT22;12094;50.822;4.376;2024-01-15T01:16:11;3.10;99.90
23827;DHT22;12094;50.822;4.376;2024-01-15T01:18:38;3.10;99.90
23827;DHT22;12094;50.822;4.376;2024-01-15T01:21:08;3.00;99.90
23827;DHT22;12094;50.822;4.376;2024-01-15T01:23:36;3.10;99.90
23827;DHT22;12094;50.822;4.376;2024-01-15T01:26:03;3.10;99.90
23827;DHT22;12094;50.822;4.376;2024-01-15T01:28:31;3.10;99.90
23827;DHT22;12094;50.822;4.376;2024-01-15T01:30:59;3.00;99.90
23827;DHT22;12094;50.822;4.376;2024-01-15T01:33:26;2.80;99.90
23827;DHT22;12094;50.822;4.376;2024-01-15T01:35:56;2.80;99.90
23827;DHT22;12094;50.822;4.376;2024-01-15T01:38:23;2.70;99.90
23827;DHT22;12094;50.822;4.376;2024-01-15T01:40:52;2.60;99.90
23827;DHT22;12094;50.822;4.376;2024-01-15T01:43:20;2.60;99.90
23827;DHT22;12094;50.822;4.376;2024-01-15T01:45:47;2.60;99.90
23827;DHT22;12094;50.822;4.376;2024-01-15T01:48:14;2.60;99.90
23827;DHT22;12094;50.822;4.376;2024-01-15T01:50:41;2.60;99.90
23827;DHT22;12094;50.822;4.376;2024-01-15T01:53:10;2.60;99.90
23827;DHT22;12094;50.822;4.376;2024-01-15T01:55:37;2.70;99.90
23827;DHT22;12094;50.822;4.376;2024-01-15T01:58:05;2.70;99.90
23827;DHT22;12094;50.822;4.376;2024-01-15T02:00:33;2.70;99.90
23827;DHT22;12094;50.822;4.376;2024-01-15T02:03:01;2.70;99.90
23827;DHT22;12094;50.822;4.376;2024-01-15T02:05:31;2.70;99.90
23827;DHT22;12094;50.822;4.376;2024-01-15T02:07:58;2.70;99.90
23827;DHT22;12094;50.822;4.376;2024-01-15T02:10:25;2.60;99.90
23827;DHT22;12094;50.822;4.376;2024-01-15T02:12:53;2.60;99.90
23827;DHT22;12094;50.822;4.376;2024-01-15T02:15:20;2.60;99.90
23827;DHT22;12094;50.822;4.376;2024-01-15T02:18:00;2.50;99.90
23827;DHT22;12094;50.822;4.376;2024-01-15T02:20:28;2.60;99.90
23827;DHT22;12094;50.822;4.376;2024-01-15T02:23:11;2.60;99.90
23827;DHT22;12094;50.822;4.376;2024-01-15T02:28:31;2.40;99.90
23827;DHT22;12094;50.822;4.376;2024-01-15T02:31:03;2.40;99.90
23827;DHT22;12094;50.822;4.376;2024-01-15T02:33:30;2.40;99.90
23827;DHT22;12094;50.822;4.376;2024-01-15T02:35:58;2.50;99.90
23827;DHT22;12094;50.822;4.376;2024-01-15T02:38:25;2.60;99.90
23827;DHT22;12094;50.822;4.376;2024-01-15T02:40:52;2.60;99.90
23827;DHT22;12094;50.822;4.376;2024-01-15T02:43:20;2.50;99.90
23827;DHT22;12094;50.822;4.376;2024-01-15T02:45:47;2.50;99.90
23827;DHT22;12094;50.822;4.376;2024-01-15T02:48:15;2.50;99.90
23827;DHT22;12094;50.822;4.376;2024-01-15T02:50:42;2.50;99.90
23827;DHT22;12094;50.822;4.376;2024-01-15T02:55:43;2.30;99.90
23827;DHT22;12094;50.822;4.376;2024-01-15T02:58:12;2.30;99.90
23827;DHT22;12094;50.822;4.376;2024-01-15T03:00:40;2.40;99.90
23827;DHT22;12094;50.822;4.376;2024-01-15T03:03:08;2.40;99.90
23827;DHT22;12094;50.822;4.376;2024-01-15T03:05:35;2.40;99.90
23827;DHT22;12094;50.822;4.376;2024-01-15T03:08:04;2.40;99.90
23827;DHT22;12094;50.822;4.376;2024-01-15T03:10:31;2.40;99.90
23827;DHT22;12094;50.822;4.376;2024-01-15T03:13:00;2.40;99.90
23827;DHT22;12094;50.822;4.376;2024-01-15T03:15:29;2.40;99.90
23827;DHT22;12094;50.822;4.376;2024-01-15T03:18:03;2.40;99.90
23827;DHT22;12094;50.822;4.376;2024-01-15T03:20:33;2.40;99.90
23827;DHT22;12094;50.822;4.376;2024-01-15T03:23:00;2.40;99.90
23827;DHT22;12094;50.822;4.376;2024-01-15T03:25:28;2.50;99.90
23827;DHT22;12094;50.822;4.376;2024-01-15T03:27:56;2.50;99.90
23827;DHT22;12094;50.822;4.376;2024-01-15T03:30:25;2.40;99.90
23827;DHT22;12094;50.822;4.376;2024-01-15T03:32:52;2.50;99.90
23827;DHT22;12094;50.822;4.376;2024-01-15T03:35:20;2.50;99.90
23827;DHT22;12094;50.822;4.376;2024-01-15T03:37:47;2.40;99.90
23827;DHT22;12094;50.822;4.376;2024-01-15T03:40:14;2.40;99.90
23827;DHT22;12094;50.822;4.376;2024-01-15T03:42:45;2.30;99.90
23827;DHT22;12094;50.822;4.376;2024-01-15T03:45:14;2.20;99.90
23827;DHT22;12094;50.822;4.376;2024-01-15T03:47:42;2.20;99.90
23827;DHT22;12094;50.822;4.376;2024-01-15T03:50:12;2.30;99.90
23827;DHT22;12094;50.822;4.376;2024-01-15T03:52:39;2.20;99.90
23827;DHT22;12094;50.822;4.376;2024-01-15T03:55:06;2.10;99.90
23827;DHT22;12094;50.822;4.376;2024-01-15T03:57:33;2.10;99.90
23827;DHT22;12094;50.822;4.376;2024-01-15T04:00:00;2.10;99.90
23827;DHT22;12094;50.822;4.376;2024-01-15T04:02:30;2.10;99.90
23827;DHT22;12094;50.822;4.376;2024-01-15T04:04:59;2.20;99.90
23827;DHT22;12094;50.822;4.376;2024-01-15T04:07:27;2.20;99.90
23827;DHT22;12094;50.822;4.376;2024-01-15T04:09:56;2.20;99.90
23827;DHT22;12094;50.822;4.376;2024-01-15T04:12:24;2.20;99.90
23827;DHT22;12094;50.822;4.376;2024-01-15T04:14:51;2.20;99.90
23827;DHT22;12094;50.822;4.376;2024-01-15T04:17:18;2.10;99.90
23827;DHT22;12094;50.822;4.376;2024-01-15T04:19:45;2.10;99.90
23827;DHT22;12094;50.822;4.376;2024-01-15T04:22:13;2.10;99.90
23827;DHT22;12094;50.822;4.376;2024-01-15T04:24:41;2.20;99.90
23827;DHT22;12094;50.822;4.376;2024-01-15T04:27:08;2.20;99.90
23827;DHT22;12094;50.822;4.376;2024-01-15T04:29:37;2.30;99.90
23827;DHT22;12094;50.822;4.376;2024-01-15T04:32:07;2.40;99.90
23827;DHT22;12094;50.822;4.376;2024-01-15T04:34:33;2.30;99.90
23827;DHT22;12094;50.822;4.376;2024-01-15T04:37:01;2.30;99.90
23827;DHT22;12094;50.822;4.376;2024-01-15T04:39:33;2.50;99.90
23827;DHT22;12094;50.822;4.376;2024-01-15T04:42:00;2.50;99.90
23827;DHT22;12094;50.822;4.376;2024-01-15T04:44:28;2.40;99.90
23827;DHT22;12094;50.822;4.376;2024-01-15T04:46:55;2.40;99.90
23827;DHT22;12094;50.822;4.376;2024-01-15T04:49:23;2.40;99.90
23827;DHT22;12094;50.822;4.376;2024-01-15T04:51:53;2.30;99.90
23827;DHT22;12094;50.822;4.376;2024-01-15T04:54:20;2.30;99.90
23827;DHT22;12094;50.822;4.376;2024-01-15T04:56:47;2.30;99.90
23827;DHT22;12094;50.822;4.376;2024-01-15T04:59:14;2.30;99.90
23827;DHT22;12094;50.822;4.376;2024-01-15T05:01:42;2.30;99.90
23827;DHT22;12094;50.822;4.376;2024-01-15T05:04:09;2.50;99.90
23827;DHT22;12094;50.822;4.376;2024-01-15T05:06:36;2.50;99.90
23827;DHT22;12094;50.822;4.376;2024-01-15T05:09:03;2.60;99.90
23827;DHT22;12094;50.822;4.376;2024-01-15T05:11:33;2.60;99.90
23827;DHT22;12094;50.822;4.376;2024-01-15T05:13:59;2.70;99.90
23827;DHT22;12094;50.822;4.376;2024-01-15T05:16:26;2.70;99.90
23827;DHT22;12094;50.822;4.376;2024-01-15T05:18:54;2.80;99.90
23827;DHT22;12094;50.822;4.376;2024-01-15T05:21:21;2.80;99.90
23827;DHT22;12094;50.822;4.376;2024-01-15T05:23:49;2.60;99.90
23827;DHT22;12094;50.822;4.376;2024-01-15T05:26:16;2.50;99.90
23827;DHT22;12094;50.822;4.376;2024-01-15T05:28:44;2.60;99.90
23827;DHT22;12094;50.822;4.376;2024-01-15T05:31:12;2.50;99.90
23827;DHT22;12094;50.822;4.376;2024-01-15T05:33:39;2.50;99.90
23827;DHT22;12094;50.822;4.376;2024-01-15T05:36:07;2.70;99.90
23827;DHT22;12094;50.822;4.376;2024-01-15T05:38:34;2.90;99.90
23827;DHT22;12094;50.822;4.376;2024-01-15T05:41:01;2.80;99.90
23827;DHT22;12094;50.822;4.376;2024-01-15T05:43:29;2.60;99.90
23827;DHT22;12094;50.822;4.376;2024-01-15T05:45:59;2.60;99.90
23827;DHT22;12094;50.822;4.376;2024-01-15T05:48:29;2.50;99.90
23827;DHT22;12094;50.822;4.376;2024-01-15T05:54:51;2.30;99.90
23827;DHT22;12094;50.822;4.376;2024-01-15T05:57:19;2.30;99.90
23827;DHT22;12094;50.822;4.376;2024-01-15T05:59:47;2.40;99.90
23827;DHT22;12094;50.822;4.376;2024-01-15T06:05:10;2.40;99.90
23827;DHT22;12094;50.822;4.376;2024-01-15T06:07:42;2.40;99.90
23827;DHT22;12094;50.822;4.376;2024-01-15T06:10:09;2.50;99.90
23827;DHT22;12094;50.822;4.376;2024-01-15T06:12:36;2.60;99.90
23827;DHT22;12094;50.822;4.376;2024-01-15T06:15:03;2.70;99.90
23827;DHT22;12094;50.822;4.376;2024-01-15T06:17:31;2.80;99.90
23827;DHT22;12094;50.822;4.376;2024-01-15T06:20:06;2.80;99.90
23827;DHT22;12094;50.822;4.376;2024-01-15T06:22:34;2.80;99.90
23827;DHT22;12094;50.822;4.376;2024-01-15T06:25:03;2.60;99.90
23827;DHT22;12094;50.822;4.376;2024-01-15T06:27:30;2.50;99.90
23827;DHT22;12094;50.822;4.376;2024-01-15T06:30:01;2.40;99.90
23827;DHT22;12094;50.822;4.376;2024-01-15T06:32:31;2.30;99.90
23827;DHT22;12094;50.822;4.376;2024-01-15T06:34:58;2.30;99.90
23827;DHT22;12094;50.822;4.376;2024-01-15T06:37:27;2.30;99.90
23827;DHT22;12094;50.822;4.376;2024-01-15T06:39:55;2.10;99.90
23827;DHT22;12094;50.822;4.376;2024-01-15T06:42:22;2.00;99.90
23827;DHT22;12094;50.822;4.376;2024-01-15T06:44:49;1.90;99.90
23827;DHT22;12094;50.822;4.376;2024-01-15T06:47:16;1.90;99.90
23827;DHT22;12094;50.822;4.376;2024-01-15T06:49:45;1.90;99.90
23827;DHT22;12094;50.822;4.376;2024-01-15T06:52:15;1.90;99.90
23827;DHT22;12094;50.822;4.376;2024-01-15T06:54:42;1.90;99.90
23827;DHT22;12094;50.822;4.376;2024-01-15T06:57:10;1.90;99.90
23827;DHT22;12094;50.822;4.376;2024-01-15T06:59:37;1.90;99.90
23827;DHT22;12094;50.822;4.376;2024-01-15T07:02:07;2.00;99.90
23827;DHT22;12094;50.822;4.376;2024-01-15T07:04:38;2.00;99.90
23827;DHT22;12094;50.822;4.376;2024-01-15T07:07:14;2.00;99.90
23827;DHT22;12094;50.822;4.376;2024-01-15T07:09:41;2.20;99.90
23827;DHT22;12094;50.822;4.376;2024-01-15T07:12:08;2.30;99.90
23827;DHT22;12094;50.822;4.376;2024-01-15T07:14:36;2.30;99.90
23827;DHT22;12094;50.822;4.376;2024-01-15T07:17:09;2.30;99.90
23827;DHT22;12094;50.822;4.376;2024-01-15T07:19:35;2.20;99.90
23827;DHT22;12094;50.822;4.376;2024-01-15T07:24:57;2.20;99.90
23827;DHT22;12094;50.822;4.376;2024-01-15T07:27:25;2.20;99.90
23827;DHT22;12094;50.822;4.376;2024-01-15T07:29:52;2.30;99.90
23827;DHT22;12094;50.822;4.376;2024-01-15T07:32:25;2.30;99.90
23827;DHT22;12094;50.822;4.376;2024-01-15T07:37:33;2.20;99.90
23827;DHT22;12094;50.822;4.376;2024-01-15T07:42:56;2.20;99.90
23827;DHT22;12094;50.822;4.376;2024-01-15T07:45:24;2.10;99.90
23827;DHT22;12094;50.822;4.376;2024-01-15T07:50:35;2.00;99.90
23827;DHT22;12094;50.822;4.376;2024-01-15T07:53:05;2.00;99.90
23827;DHT22;12094;50.822;4.376;2024-01-15T07:55:37;2.00;99.90
23827;DHT22;12094;50.822;4.376;2024-01-15T07:58:14;2.10;99.90
23827;DHT22;12094;50.822;4.376;2024-01-15T08:00:44;2.10;99.90
23827;DHT22;12094;50.822;4.376;2024-01-15T08:03:13;2.10;99.90
23827;DHT22;12094;50.822;4.376;2024-01-15T08:05:43;2.00;99.90
23827;DHT22;12094;50.822;4.376;2024-01-15T08:08:10;2.00;99.90
23827;DHT22;12094;50.822;4.376;2024-01-15T08:10:39;2.10;99.90
23827;DHT22;12094;50.822;4.376;2024-01-15T08:13:06;2.20;99.90
23827;DHT22;12094;50.822;4.376;2024-01-15T08:15:35;2.20;99.90
23827;DHT22;12094;50.822;4.376;2024-01-15T08:18:02;2.30;99.90
23827;DHT22;12094;50.822;4.376;2024-01-15T08:20:29;2.30;99.90
23827;DHT22;12094;50.822;4.376;2024-01-15T08:22:58;2.40;99.90
23827;DHT22;12094;50.822;4.376;2024-01-15T08:25:25;2.50;99.90
23827;DHT22;12094;50.822;4.376;2024-01-15T08:27:54;2.40;99.90
23827;DHT22;12094;50.822;4.376;2024-01-15T08:30:21;2.40;99.90
23827;DHT22;12094;50.822;4.376;2024-01-15T08:32:56;2.40;99.90
23827;DHT22;12094;50.822;4.376;2024-01-15T08:35:33;2.40;99.90
23827;DHT22;12094;50.822;4.376;2024-01-15T08:38:03;2.50;99.90
23827;DHT22;12094;50.822;4.376;2024-01-15T08:40:31;2.60;99.90
23827;DHT22;12094;50.822;4.376;2024-01-15T08:43:01;2.70;99.90
23827;DHT22;12094;50.822;4.376;2024-01-15T08:45:29;2.80;99.90
23827;DHT22;12094;50.822;4.376;2024-01-15T08:47:58;2.90;99.90
23827;DHT22;12094;50.822;4.376;2024-01-15T08:50:26;2.90;99.90
23827;DHT22;12094;50.822;4.376;2024-01-15T08:52:53;3.00;99.90
23827;DHT22;12094;50.822;4.376;2024-01-15T08:55:21;3.10;99.90
23827;DHT22;12094;50.822;4.376;2024-01-15T08:57:49;3.00;99.90
23827;DHT22;12094;50.822;4.376;2024-01-15T09:00:17;3.10;99.90
23827;DHT22;12094;50.822;4.376;2024-01-15T09:02:45;3.10;99.90
23827;DHT22;12094;50.822;4.376;2024-01-15T09:05:12;3.10;99.90
23827;DHT22;12094;50.822;4.376;2024-01-15T09:07:39;3.30;99.90
23827;DHT22;12094;50.822;4.376;2024-01-15T09:10:09;3.20;99.90
23827;DHT22;12094;50.822;4.376;2024-01-15T09:12:36;3.10;99.90
23827;DHT22;12094;50.822;4.376;2024-01-15T09:15:06;3.20;99.90
23827;DHT22;12094;50.822;4.376;2024-01-15T09:17:33;3.30;99.90
23827;DHT22;12094;50.822;4.376;2024-01-15T09:20:00;3.30;99.90
23827;DHT22;12094;50.822;4.376;2024-01-15T09:28:51;3.30;99.90
23827;DHT22;12094;50.822;4.376;2024-01-15T09:31:21;3.20;99.90
23827;DHT22;12094;50.822;4.376;2024-01-15T09:33:50;3.30;99.90
23827;DHT22;12094;50.822;4.376;2024-01-15T09:36:23;3.20;99.90
23827;DHT22;12094;50.822;4.376;2024-01-15T09:38:50;3.20;99.90
23827;DHT22;12094;50.822;4.376;2024-01-15T09:41:17;3.30;99.90
23827;DHT22;12094;50.822;4.376;2024-01-15T09:43:44;3.40;99.90
23827;DHT22;12094;50.822;4.376;2024-01-15T09:46:13;3.50;99.90
23827;DHT22;12094;50.822;4.376;2024-01-15T09:48:40;3.40;99.90
23827;DHT22;12094;50.822;4.376;2024-01-15T09:51:08;3.30;99.90
23827;DHT22;12094;50.822;4.376;2024-01-15T09:53:36;3.40;99.90
23827;DHT22;12094;50.822;4.376;2024-01-15T09:56:05;3.50;99.90
23827;DHT22;12094;50.822;4.376;2024-01-15T09:58:33;3.60;99.90
23827;DHT22;12094;50.822;4.376;2024-01-15T10:01:03;3.80;99.90
23827;DHT22;12094;50.822;4.376;2024-01-15T10:03:35;3.80;99.90
23827;DHT22;12094;50.822;4.376;2024-01-15T10:06:05;3.90;99.90
23827;DHT22;12094;50.822;4.376;2024-01-15T10:08:37;3.90;99.90
23827;DHT22;12094;50.822;4.376;2024-01-15T10:11:06;3.90;99.90
23827;DHT22;12094;50.822;4.376;2024-01-15T10:13:35;4.00;99.90
23827;DHT22;12094;50.822;4.376;2024-01-15T10:16:05;4.10;99.90
23827;DHT22;12094;50.822;4.376;2024-01-15T10:18:34;3.90;99.90
23827;DHT22;12094;50.822;4.376;2024-01-15T10:21:09;3.70;99.90
23827;DHT22;12094;50.822;4.376;2024-01-15T10:23:37;3.90;99.90
23827;DHT22;12094;50.822;4.376;2024-01-15T10:26:05;4.10;99.90
23827;DHT22;12094;50.822;4.376;2024-01-15T10:28:32;4.10;99.90
23827;DHT22;12094;50.822;4.376;2024-01-15T10:31:00;4.20;99.90
23827;DHT22;12094;50.822;4.376;2024-01-15T10:33:29;4.20;99.90
23827;DHT22;12094;50.822;4.376;2024-01-15T10:36:02;4.10;99.90
23827;DHT22;12094;50.822;4.376;2024-01-15T10:38:34;4.20;99.90
23827;DHT22;12094;50.822;4.376;2024-01-15T10:41:03;4.20;99.90
23827;DHT22;12094;50.822;4.376;2024-01-15T10:43:38;4.20;99.90
23827;DHT22;12094;50.822;4.376;2024-01-15T10:46:11;4.50;99.90
23827;DHT22;12094;50.822;4.376;2024-01-15T10:48:41;4.70;99.90
23827;DHT22;12094;50.822;4.376;2024-01-15T10:51:08;5.00;99.90
23827;DHT22;12094;50.822;4.376;2024-01-15T10:56:15;5.10;99.90
23827;DHT22;12094;50.822;4.376;2024-01-15T10:58:44;5.70;99.90
23827;DHT22;12094;50.822;4.376;2024-01-15T11:01:16;6.10;99.90
23827;DHT22;12094;50.822;4.376;2024-01-15T11:03:44;6.30;99.90
23827;DHT22;12094;50.822;4.376;2024-01-15T11:06:16;6.60;99.90
23827;DHT22;12094;50.822;4.376;2024-01-15T11:08:43;6.80;99.90
23827;DHT22;12094;50.822;4.376;2024-01-15T11:11:11;6.90;99.90
23827;DHT22;12094;50.822;4.376;2024-01-15T11:13:41;6.80;99.90
23827;DHT22;12094;50.822;4.376;2024-01-15T11:16:11;6.60;99.90
23827;DHT22;12094;50.822;4.376;2024-01-15T11:18:40;6.10;99.90
23827;DHT22;12094;50.822;4.376;2024-01-15T11:23:43;5.30;99.90
23827;DHT22;12094;50.822;4.376;2024-01-15T11:29:10;5.00;99.90
23827;DHT22;12094;50.822;4.376;2024-01-15T11:34:08;4.60;99.90
23827;DHT22;12094;50.822;4.376;2024-01-15T11:42:05;5.40;99.90
23827;DHT22;12094;50.822;4.376;2024-01-15T11:44:33;5.30;99.90
23827;DHT22;12094;50.822;4.376;2024-01-15T11:47:04;5.30;99.90
23827;DHT22;12094;50.822;4.376;2024-01-15T11:52:00;5.50;99.90
23827;DHT22;12094;50.822;4.376;2024-01-15T11:54:28;5.60;99.90
23827;DHT22;12094;50.822;4.376;2024-01-15T11:57:02;5.60;99.90
23827;DHT22;12094;50.822;4.376;2024-01-15T11:59:31;5.60;99.90
23827;DHT22;12094;50.822;4.376;2024-01-15T12:01:57;5.70;99.90
23827;DHT22;12094;50.822;4.376;2024-01-15T12:04:25;5.60;99.90
23827;DHT22;12094;50.822;4.376;2024-01-15T12:06:52;5.40;99.90
23827;DHT22;12094;50.822;4.376;2024-01-15T12:09:25;5.80;99.90
23827;DHT22;12094;50.822;4.376;2024-01-15T12:11:59;5.90;99.90
23827;DHT22;12094;50.822;4.376;2024-01-15T12:14:32;5.80;99.90
23827;DHT22;12094;50.822;4.376;2024-01-15T12:17:01;5.30;99.90
23827;DHT22;12094;50.822;4.376;2024-01-15T12:19:31;5.30;99.90
23827;DHT22;12094;50.822;4.376;2024-01-15T12:21:58;5.50;99.90
23827;DHT22;12094;50.822;4.376;2024-01-15T12:24:25;5.70;99.90
23827;DHT22;12094;50.822;4.376;2024-01-15T12:26:52;5.80;99.90
23827;DHT22;12094;50.822;4.376;2024-01-15T12:29:19;6.00;99.90
23827;DHT22;12094;50.822;4.376;2024-01-15T12:31:48;5.90;99.90
23827;DHT22;12094;50.822;4.376;2024-01-15T12:34:17;5.60;99.90
23827;DHT22;12094;50.822;4.376;2024-01-15T12:36:48;5.20;99.90
23827;DHT22;12094;50.822;4.376;2024-01-15T12:39:17;5.10;99.90
23827;DHT22;12094;50.822;4.376;2024-01-15T12:41:47;4.80;99.90
23827;DHT22;12094;50.822;4.376;2024-01-15T12:44:14;4.90;99.90
23827;DHT22;12094;50.822;4.376;2024-01-15T12:46:43;4.80;99.90
23827;DHT22;12094;50.822;4.376;2024-01-15T12:49:10;4.80;99.90
23827;DHT22;12094;50.822;4.376;2024-01-15T12:51:39;4.60;99.90
23827;DHT22;12094;50.822;4.376;2024-01-15T12:54:09;4.60;99.90
23827;DHT22;12094;50.822;4.376;2024-01-15T12:56:37;4.60;99.90
23827;DHT22;12094;50.822;4.376;2024-01-15T12:59:04;4.60;99.90
23827;DHT22;12094;50.822;4.376;2024-01-15T13:01:32;4.50;99.90
23827;DHT22;12094;50.822;4.376;2024-01-15T13:04:02;4.60;99.90
23827;DHT22;12094;50.822;4.376;2024-01-15T13:06:31;4.50;99.90
23827;DHT22;12094;50.822;4.376;2024-01-15T13:08:59;4.60;99.90
23827;DHT22;12094;50.822;4.376;2024-01-15T13:11:27;4.80;99.90
23827;DHT22;12094;50.822;4.376;2024-01-15T13:13:56;4.80;99.90
23827;DHT22;12094;50.822;4.376;2024-01-15T13:16:30;4.70;99.90
23827;DHT22;12094;50.822;4.376;2024-01-15T13:18:58;4.50;99.90
23827;DHT22;12094;50.822;4.376;2024-01-15T13:21:29;4.50;99.90
23827;DHT22;12094;50.822;4.376;2024-01-15T13:24:03;4.30;99.90
23827;DHT22;12094;50.822;4.376;2024-01-15T13:26:33;4.20;99.90
23827;DHT22;12094;50.822;4.376;2024-01-15T13:29:01;4.20;99.90
23827;DHT22;12094;50.822;4.376;2024-01-15T13:31:29;4.30;99.90
23827;DHT22;12094;50.822;4.376;2024-01-15T13:33:56;4.40;99.90
23827;DHT22;12094;50.822;4.376;2024-01-15T13:36:25;4.50;99.90
23827;DHT22;12094;50.822;4.376;2024-01-15T13:38:53;4.60;99.90
23827;DHT22;12094;50.822;4.376;2024-01-15T13:41:22;4.70;99.90
23827;DHT22;12094;50.822;4.376;2024-01-15T13:43:54;4.70;99.90
23827;DHT22;12094;50.822;4.376;2024-01-15T13:46:23;4.70;99.90
23827;DHT22;12094;50.822;4.376;2024-01-15T13:48:50;4.90;99.90
23827;DHT22;12094;50.822;4.376;2024-01-15T13:51:17;4.80;99.90
23827;DHT22;12094;50.822;4.376;2024-01-15T13:53:45;4.70;99.90
23827;DHT22;12094;50.822;4.376;2024-01-15T13:56:12;4.70;99.90
23827;DHT22;12094;50.822;4.376;2024-01-15T14:04:07;4.90;99.90
23827;DHT22;12094;50.822;4.376;2024-01-15T14:06:34;4.80;99.90
23827;DHT22;12094;50.822;4.376;2024-01-15T14:09:01;4.50;99.90
23827;DHT22;12094;50.822;4.376;2024-01-15T14:11:31;4.20;99.90
23827;DHT22;12094;50.822;4.376;2024-01-15T14:13:59;3.90;99.90
23827;DHT22;12094;50.822;4.376;2024-01-15T14:16:26;4.00;99.90
23827;DHT22;12094;50.822;4.376;2024-01-15T14:18:53;4.10;99.90
23827;DHT22;12094;50.822;4.376;2024-01-15T14:21:21;4.10;99.90
23827;DHT22;12094;50.822;4.376;2024-01-15T14:23:50;4.10;99.90
23827;DHT22;12094;50.822;4.376;2024-01-15T14:26:18;4.10;99.90
23827;DHT22;12094;50.822;4.376;2024-01-15T14:28:45;4.10;99.90
23827;DHT22;12094;50.822;4.376;2024-01-15T14:31:19;4.30;99.90
23827;DHT22;12094;50.822;4.376;2024-01-15T14:33:47;4.20;99.90
23827;DHT22;12094;50.822;4.376;2024-01-15T14:36:14;4.20;99.90
23827;DHT22;12094;50.822;4.376;2024-01-15T14:38:42;4.10;99.90
23827;DHT22;12094;50.822;4.376;2024-01-15T14:41:18;4.10;99.90
23827;DHT22;12094;50.822;4.376;2024-01-15T14:43:47;4.10;99.90
23827;DHT22;12094;50.822;4.376;2024-01-15T14:46:15;3.90;99.90
23827;DHT22;12094;50.822;4.376;2024-01-15T14:48:42;3.60;99.90
23827;DHT22;12094;50.822;4.376;2024-01-15T14:51:09;3.60;99.90
23827;DHT22;12094;50.822;4.376;2024-01-15T14:53:39;3.50;99.90
23827;DHT22;12094;50.822;4.376;2024-01-15T14:56:06;3.40;99.90
23827;DHT22;12094;50.822;4.376;2024-01-15T14:58:38;3.40;99.90
23827;DHT22;12094;50.822;4.376;2024-01-15T15:04:00;3.30;99.90
23827;DHT22;12094;50.822;4.376;2024-01-15T15:06:30;3.30;99.90
23827;DHT22;12094;50.822;4.376;2024-01-15T15:08:57;3.30;99.90
23827;DHT22;12094;50.822;4.376;2024-01-15T15:11:26;3.30;99.90
23827;DHT22;12094;50.822;4.376;2024-01-15T15:13:56;3.10;99.90
23827;DHT22;12094;50.822;4.376;2024-01-15T15:16:24;3.10;99.90
23827;DHT22;12094;50.822;4.376;2024-01-15T15:18:54;3.10;99.90
23827;DHT22;12094;50.822;4.376;2024-01-15T15:21:22;3.00;99.90
23827;DHT22;12094;50.822;4.376;2024-01-15T15:23:57;2.90;99.90
23827;DHT22;12094;50.822;4.376;2024-01-15T15:26:25;2.80;99.90
23827;DHT22;12094;50.822;4.376;2024-01-15T15:28:56;2.70;99.90
23827;DHT22;12094;50.822;4.376;2024-01-15T15:31:27;2.70;99.90
23827;DHT22;12094;50.822;4.376;2024-01-15T15:33:56;2.70;99.90
23827;DHT22;12094;50.822;4.376;2024-01-15T15:39:16;2.90;99.90
23827;DHT22;12094;50.822;4.376;2024-01-15T15:41:55;3.00;99.90
23827;DHT22;12094;50.822;4.376;2024-01-15T15:44:24;3.10;99.90
23827;DHT22;12094;50.822;4.376;2024-01-15T15:46:51;3.10;99.90
23827;DHT22;12094;50.822;4.376;2024-01-15T15:49:18;3.00;99.90
23827;DHT22;12094;50.822;4.376;2024-01-15T15:51:46;2.90;99.90
23827;DHT22;12094;50.822;4.376;2024-01-15T15:54:14;2.90;99.90
23827;DHT22;12094;50.822;4.376;2024-01-15T15:56:43;2.90;99.90
23827;DHT22;12094;50.822;4.376;2024-01-15T15:59:14;2.90;99.90
23827;DHT22;12094;50.822;4.376;2024-01-15T16:01:42;2.80;99.90
23827;DHT22;12094;50.822;4.376;2024-01-15T16:04:09;2.80;99.90
23827;DHT22;12094;50.822;4.376;2024-01-15T16:06:37;2.80;99.90
23827;DHT22;12094;50.822;4.376;2024-01-15T16:09:10;2.80;99.90
23827;DHT22;12094;50.822;4.376;2024-01-15T16:11:37;2.80;99.90
23827;DHT22;12094;50.822;4.376;2024-01-15T16:14:05;3.00;99.90
23827;DHT22;12094;50.822;4.376;2024-01-15T16:16:33;2.90;99.90
23827;DHT22;12094;50.822;4.376;2024-01-15T16:19:21;2.90;99.90
23827;DHT22;12094;50.822;4.376;2024-01-15T16:22:08;2.90;99.90
23827;DHT22;12094;50.822;4.376;2024-01-15T16:24:58;3.00;99.90
23827;DHT22;12094;50.822;4.376;2024-01-15T16:27:33;3.00;99.90
23827;DHT22;12094;50.822;4.376;2024-01-15T16:30:01;2.90;99.90
23827;DHT22;12094;50.822;4.376;2024-01-15T16:32:52;2.90;99.90
23827;DHT22;12094;50.822;4.376;2024-01-15T16:35:23;2.80;99.90
23827;DHT22;12094;50.822;4.376;2024-01-15T16:37:52;2.80;99.90
23827;DHT22;12094;50.822;4.376;2024-01-15T16:40:23;2.80;99.90
23827;DHT22;12094;50.822;4.376;2024-01-15T16:43:10;2.80;99.90
23827;DHT22;12094;50.822;4.376;2024-01-15T16:45:42;2.80;99.90
23827;DHT22;12094;50.822;4.376;2024-01-15T16:48:11;3.00;99.90
23827;DHT22;12094;50.822;4.376;2024-01-15T16:50:39;3.20;99.90
23827;DHT22;12094;50.822;4.376;2024-01-15T16:53:06;3.20;99.90
23827;DHT22;12094;50.822;4.376;2024-01-15T16:55:35;3.10;99.90
23827;DHT22;12094;50.822;4.376;2024-01-15T16:58:03;2.80;99.90
23827;DHT22;12094;50.822;4.376;2024-01-15T17:00:31;2.60;99.90